Kissimmee Gateway Airport
KISM : now visible

Airfield :











YOU CAN JOIN US ON...

 
LOGIN :

Register | Disclaimer

   EN    FR    IT 

 









Legend :    VFR   Marginal VFR   IFR   Intensive IFR   Very Intensive IFR
Visi :
Ceiling :
>= 8 km
>= 3000ft
5 to 8 km
1000 to 3000 ft
1500m to 5 km
500 to 1000 ft
800 to 1500m
200 to 500 ft
< 800m
< 200 ft
Symbols :   Thunderstorms  Fog  Heavy snow  Heavy precipitations  Wind > 20 kt






- Airport Elevation : 82 ft


KISM - Kissimmee Gateway

CURRENT METAR :
  • 111956Z 10007KT 10SM SCT047 BKN060 28/17 A3005 RMK AO2 SLP176 T02780167 PNO $

EXPIRED METARs :
  • 111856Z 10003KT 10SM CLR 27/17 A3007 RMK AO2 SLP181 T02720167 PNO $
  • 111756Z 11007KT 10SM FEW047 BKN060 27/17 A3009 RMK AO2 SLP191 6//// T02670167 10272 20167 58022 PNO $

TAF KISM
Valid from the 11 at 18:00 until the 12 at 18:00 UTC


111737Z 1118/1218 11008KT P6SM SCT040 BKN060
FM120500 21002KT P6SM FEW040 BKN070
FM121500 23007KT P6SM SCT030 BKN250



MET'MAP, your aeronautical weather chart ! - Copyright ORBIFLY December 2007 - Disclaimer

ORBIFLY MET'MAP TEAM :

Programming & Development : Alexandra Zaïnal
Concept & Development : Baudouin d'Aumeries
Co-Development & Prog : Marc-Olivier Méhu
Technical & hardware support : Manuel Goepfert

Contact : metmap@orbifly.com




SOURCES & CREDITS :

   NOAA       Earth
Advisory